Time;durP1;ratioP1;P1;durP2;ratioP2;P2;SDS_P1;SDS_P2;PMS_P1;PMS_P2;Temp;Humidity;BMP_temperature;BMP_pressure;BME280_temperature;BME280_humidity;BME280_pressure;Samples;Min_cycle;Max_cycle;Signal;HPM_P1;HPM_P2
2023/05/21 03:00:57;;;;;;;43.07;40.17;;;13.70;99.90;;;;;;5694901;23;20352;-77
2023/05/21 03:03:23;;;;;;;40.57;37.73;;;13.70;99.90;;;;;;4961466;29;20189;-76
2023/05/21 03:05:49;;;;;;;42.23;39.43;;;13.70;99.90;;;;;;4961218;29;20182;-77
2023/05/21 03:08:15;;;;;;;43.80;40.73;;;13.60;99.90;;;;;;4961022;29;20723;-77
2023/05/21 03:10:41;;;;;;;42.87;40.13;;;13.50;99.90;;;;;;4960894;28;20208;-77
2023/05/21 03:13:07;;;;;;;38.43;35.70;;;13.60;99.90;;;;;;4944676;29;20700;-77
2023/05/21 03:15:33;;;;;;;41.57;38.83;;;13.50;99.90;;;;;;4961213;29;20181;-77
2023/05/21 03:17:59;;;;;;;49.90;46.87;;;13.50;99.90;;;;;;4940179;28;20194;-77
2023/05/21 03:20:25;;;;;;;41.93;39.07;;;13.50;99.90;;;;;;4936929;28;20189;-77
2023/05/21 03:22:51;;;;;;;33.10;30.60;;;13.50;99.90;;;;;;4952510;29;20182;-77
2023/05/21 03:25:17;;;;;;;29.70;27.30;;;13.40;99.90;;;;;;4938056;29;20709;-77
2023/05/21 03:27:43;;;;;;;34.00;31.50;;;13.40;99.90;;;;;;4953065;29;20182;-77
2023/05/21 03:30:09;;;;;;;29.73;27.43;;;13.40;99.90;;;;;;4956722;29;20233;-77
2023/05/21 03:32:36;;;;;;;27.00;24.60;;;13.30;99.90;;;;;;4954632;29;20209;-76
2023/05/21 03:35:04;;;;;;;26.90;24.90;;;13.20;99.90;;;;;;4953734;29;20182;-77
2023/05/21 03:37:29;;;;;;;27.13;24.93;;;13.30;99.90;;;;;;4936320;29;20252;-77
2023/05/21 03:39:55;;;;;;;26.27;24.27;;;13.30;99.90;;;;;;4938425;29;20214;-77
2023/05/21 03:42:21;;;;;;;28.97;26.13;;;13.30;99.90;;;;;;4955219;28;20209;-77
2023/05/21 03:44:47;;;;;;;27.20;25.07;;;13.30;99.90;;;;;;4938063;29;20204;-75
2023/05/21 03:47:13;;;;;;;26.73;24.17;;;13.20;99.90;;;;;;4942737;29;20197;-77
2023/05/21 03:49:39;;;;;;;25.43;23.50;;;13.20;99.90;;;;;;4936129;29;20193;-76
2023/05/21 03:52:05;;;;;;;26.73;24.73;;;13.10;99.90;;;;;;4945717;29;20624;-77
2023/05/21 03:54:30;;;;;;;26.07;24.10;;;13.10;99.90;;;;;;4953023;29;20241;-77
2023/05/21 03:56:56;;;;;;;30.87;28.50;;;13.10;99.90;;;;;;4935652;29;20241;-77
2023/05/21 03:59:22;;;;;;;29.47;27.17;;;13.10;99.90;;;;;;4952998;29;20638;-76
2023/05/21 04:01:47;;;;;;;30.03;27.63;;;13.10;99.90;;;;;;4935145;29;20214;-77
2023/05/21 04:04:13;;;;;;;35.77;33.27;;;13.10;99.90;;;;;;4953028;29;20192;-77
2023/05/21 04:06:41;;;;;;;34.30;31.87;;;13.10;99.90;;;;;;4953295;29;20559;-77
2023/05/21 04:09:07;;;;;;;38.60;35.57;;;13.10;99.90;;;;;;4936214;29;20273;-77
2023/05/21 04:11:32;;;;;;;37.70;35.07;;;13.10;99.90;;;;;;4937141;29;20387;-77
2023/05/21 04:13:58;;;;;;;37.17;34.50;;;13.10;99.90;;;;;;4956150;29;20678;-76
2023/05/21 04:16:24;;;;;;;33.63;31.27;;;13.10;99.90;;;;;;4942600;29;20188;-77
2023/05/21 04:18:51;;;;;;;31.07;28.87;;;13.10;99.90;;;;;;4963512;29;20178;-78
2023/05/21 04:21:16;;;;;;;32.93;30.27;;;13.10;99.90;;;;;;4947261;29;20201;-77
2023/05/21 04:23:42;;;;;;;29.07;26.67;;;13.20;99.90;;;;;;4944345;29;20217;-78
2023/05/21 04:26:08;;;;;;;30.83;28.37;;;13.20;99.90;;;;;;4944698;29;20784;-78
2023/05/21 04:28:34;;;;;;;29.03;26.30;;;13.20;99.90;;;;;;4955662;29;20189;-77
2023/05/21 04:31:00;;;;;;;28.77;26.47;;;13.30;99.90;;;;;;4943458;29;20213;-77
2023/05/21 04:33:26;;;;;;;28.70;26.50;;;13.30;99.90;;;;;;4945461;29;20217;-77
2023/05/21 04:35:52;;;;;;;26.53;24.33;;;13.30;99.90;;;;;;4944330;29;20185;-77
2023/05/21 04:38:19;;;;;;;25.93;23.37;;;13.30;99.90;;;;;;4961504;29;20259;-77
2023/05/21 04:40:49;;;;;;;23.77;21.77;;;13.30;99.90;;;;;;4943874;29;20202;-77
2023/05/21 04:43:15;;;;;;;25.50;23.50;;;13.30;99.90;;;;;;4943804;29;20200;-76
2023/05/21 04:45:42;;;;;;;27.10;24.73;;;13.40;99.90;;;;;;4958554;29;20181;-77
2023/05/21 04:48:08;;;;;;;26.80;24.47;;;13.40;99.90;;;;;;4960599;29;20194;-77
2023/05/21 04:50:34;;;;;;;26.67;24.27;;;13.50;99.90;;;;;;4958510;28;20209;-77
2023/05/21 04:53:01;;;;;;;24.87;22.67;;;13.60;99.90;;;;;;4957057;29;20228;-78
2023/05/21 04:55:27;;;;;;;23.37;21.17;;;13.70;99.90;;;;;;4957709;29;20188;-77
2023/05/21 04:57:54;;;;;;;24.53;22.37;;;13.70;99.90;;;;;;4940353;29;20189;-77
2023/05/21 05:00:21;;;;;;;21.37;19.47;;;13.70;99.90;;;;;;4941007;29;20188;-77
2023/05/21 05:02:47;;;;;;;27.33;25.03;;;13.80;99.90;;;;;;4941664;29;20216;-77
2023/05/21 05:05:12;;;;;;;30.37;27.73;;;13.90;99.90;;;;;;4958567;29;20269;-76
2023/05/21 05:07:38;;;;;;;116.80;110.20;;;14.00;99.90;;;;;;4971339;29;20196;-77
2023/05/21 05:10:04;;;;;;;167.27;158.10;;;14.10;99.90;;;;;;4959369;29;20188;-77
2023/05/21 05:12:30;;;;;;;101.80;95.97;;;14.10;99.90;;;;;;4951689;29;20225;-77
2023/05/21 05:14:56;;;;;;;46.37;42.97;;;14.30;99.90;;;;;;4974025;29;20178;-77
2023/05/21 05:17:21;;;;;;;99.30;93.60;;;14.40;99.90;;;;;;4969721;29;20705;-77
2023/05/21 05:19:47;;;;;;;176.10;166.47;;;14.50;99.90;;;;;;4976353;28;20204;-77
2023/05/21 05:22:13;;;;;;;142.77;134.80;;;14.60;99.90;;;;;;4957465;29;20213;-77
2023/05/21 05:24:38;;;;;;;43.93;40.80;;;14.70;99.90;;;;;;4953384;29;20198;-77
2023/05/21 05:27:04;;;;;;;19.33;17.53;;;14.90;99.90;;;;;;4964188;29;20456;-77
2023/05/21 05:29:30;;;;;;;27.07;25.00;;;15.00;99.90;;;;;;4947303;29;20190;-77
2023/05/21 05:31:56;;;;;;;27.53;25.43;;;15.00;99.90;;;;;;4959254;28;20213;-77
2023/05/21 05:34:21;;;;;;;27.83;25.73;;;15.10;99.90;;;;;;4960251;29;20196;-77
2023/05/21 05:36:47;;;;;;;20.67;18.67;;;15.20;99.90;;;;;;4957233;29;20337;-77
2023/05/21 05:39:13;;;;;;;21.93;19.90;;;15.30;99.90;;;;;;4960303;29;20185;-78
2023/05/21 05:41:39;;;;;;;57.93;54.17;;;15.40;99.90;;;;;;4956497;28;20205;-76
2023/05/21 05:44:04;;;;;;;65.50;61.50;;;15.50;99.90;;;;;;4960556;29;20207;-79
2023/05/21 05:46:30;;;;;;;36.20;33.67;;;15.70;99.90;;;;;;4945258;29;20189;-78
2023/05/21 05:48:56;;;;;;;28.63;26.40;;;15.90;99.90;;;;;;4944805;29;20193;-77
2023/05/21 05:51:22;;;;;;;38.07;35.17;;;16.00;99.90;;;;;;4946713;29;20216;-77
2023/05/21 05:53:47;;;;;;;84.13;78.93;;;16.20;99.90;;;;;;4959722;29;20201;-77
2023/05/21 05:56:15;;;;;;;99.60;93.37;;;16.30;99.90;;;;;;4937542;29;20567;-77
2023/05/21 05:58:41;;;;;;;37.03;34.27;;;16.50;99.90;;;;;;4955407;29;20177;-77
2023/05/21 06:01:07;;;;;;;18.60;16.90;;;16.60;99.90;;;;;;4938465;29;20237;-77
2023/05/21 06:03:33;;;;;;;18.07;16.47;;;16.70;99.90;;;;;;4961151;29;20185;-77
2023/05/21 06:05:58;;;;;;;21.80;20.00;;;16.80;99.90;;;;;;4961021;29;20233;-77
2023/05/21 06:08:24;;;;;;;19.77;18.00;;;16.80;99.90;;;;;;4962940;29;20661;-77
2023/05/21 06:10:50;;;;;;;20.07;18.17;;;16.90;99.90;;;;;;4948853;29;20225;-77
2023/05/21 06:13:15;;;;;;;20.37;18.67;;;17.10;99.90;;;;;;4961423;29;20210;-77
2023/05/21 06:15:44;;;;;;;19.00;17.27;;;17.30;99.90;;;;;;4962622;29;20213;-78
2023/05/21 06:18:10;;;;;;;16.40;14.83;;;17.20;99.90;;;;;;4965883;28;20570;-77
2023/05/21 06:20:36;;;;;;;16.80;15.20;;;17.50;99.90;;;;;;4960587;29;20206;-77
2023/05/21 06:23:01;;;;;;;20.40;17.48;;;17.80;99.90;;;;;;4959329;29;20410;-78
2023/05/21 06:25:27;;;;;;;16.42;14.70;;;18.10;99.90;;;;;;4949616;29;20691;-78
2023/05/21 06:27:53;;;;;;;19.55;17.75;;;18.40;99.90;;;;;;4932484;29;20182;-78
2023/05/21 06:30:19;;;;;;;43.42;40.55;;;18.60;99.90;;;;;;4949060;29;20183;-78
2023/05/21 06:32:45;;;;;;;36.10;33.65;;;18.90;99.90;;;;;;4937764;29;20564;-78
2023/05/21 06:35:10;;;;;;;38.17;35.55;;;19.10;99.90;;;;;;4969336;29;20185;-77
2023/05/21 06:37:36;;;;;;;54.20;50.88;;;19.40;99.90;;;;;;4961492;29;20189;-78
2023/05/21 06:40:02;;;;;;;41.28;38.40;;;19.80;99.90;;;;;;4931477;29;20326;-77
2023/05/21 06:42:28;;;;;;;25.45;23.15;;;20.30;99.90;;;;;;4943048;29;20402;-78
2023/05/21 06:44:54;;;;;;;34.08;31.58;;;20.60;99.90;;;;;;4974181;29;20200;-78
2023/05/21 06:47:19;;;;;;;27.73;25.75;;;20.70;99.90;;;;;;4965858;29;20186;-77
2023/05/21 06:49:45;;;;;;;22.30;20.48;;;20.80;99.90;;;;;;4952056;29;20216;-78
2023/05/21 06:52:11;;;;;;;16.13;14.50;;;20.90;99.90;;;;;;4969769;29;20249;-78
2023/05/21 06:54:37;;;;;;;15.05;13.43;;;21.10;99.90;;;;;;4952385;29;20257;-77
2023/05/21 06:57:03;;;;;;;15.13;13.75;;;21.20;99.90;;;;;;4958756;29;20177;-77
2023/05/21 06:59:28;;;;;;;14.88;12.27;;;21.50;99.90;;;;;;4941504;29;20378;-76
2023/05/21 07:01:54;;;;;;;17.02;15.52;;;21.80;99.90;;;;;;4956078;29;20224;-78
2023/05/21 07:04:20;;;;;;;19.25;17.65;;;22.00;99.90;;;;;;4939134;29;20185;-79
2023/05/21 07:06:47;;;;;;;38.42;35.92;;;22.30;99.90;;;;;;4955578;29;20544;-77
2023/05/21 07:09:13;;;;;;;39.05;36.53;;;22.60;99.90;;;;;;4937940;29;20178;-77
2023/05/21 07:11:38;;;;;;;29.65;27.55;;;22.50;99.90;;;;;;4958069;29;20737;-77
2023/05/21 07:14:04;;;;;;;23.13;21.33;;;22.50;99.90;;;;;;4955273;29;20701;-77
2023/05/21 07:16:30;;;;;;;25.38;23.27;;;22.50;99.90;;;;;;4935841;29;20182;-77
2023/05/21 07:18:56;;;;;;;16.75;15.35;;;22.50;99.90;;;;;;4955742;29;20196;-77
2023/05/21 07:21:22;;;;;;;16.73;15.43;;;22.50;99.90;;;;;;4939326;29;20252;-77
2023/05/21 07:23:47;;;;;;;17.58;16.23;;;22.70;99.90;;;;;;4956807;29;20185;-77
2023/05/21 07:26:13;;;;;;;17.52;16.13;;;22.80;99.90;;;;;;4956602;29;20208;-77
2023/05/21 07:28:39;;;;;;;17.65;16.33;;;23.00;99.90;;;;;;4940118;29;20192;-77
2023/05/21 07:31:05;;;;;;;16.48;15.18;;;23.50;99.90;;;;;;4957692;29;20212;-77
2023/05/21 07:33:30;;;;;;;12.65;11.65;;;24.20;99.90;;;;;;4938693;29;20214;-77
2023/05/21 07:35:56;;;;;;;11.85;10.85;;;24.40;99.90;;;;;;4939208;29;20209;-77
2023/05/21 07:38:22;;;;;;;13.32;12.15;;;24.50;99.90;;;;;;4956091;29;20189;-76
2023/05/21 07:40:48;;;;;;;13.77;12.57;;;24.70;99.90;;;;;;4956360;29;20200;-77
2023/05/21 07:43:13;;;;;;;15.32;14.13;;;24.40;99.90;;;;;;4957509;29;20270;-77
2023/05/21 07:45:39;;;;;;;11.82;10.82;;;24.40;99.90;;;;;;4957990;29;20269;-77
2023/05/21 07:48:05;;;;;;;11.60;10.63;;;24.00;99.90;;;;;;4956510;29;20658;-77
2023/05/21 07:50:31;;;;;;;11.63;10.60;;;23.90;99.90;;;;;;4956540;28;20206;-76
2023/05/21 07:52:57;;;;;;;11.30;9.73;;;23.70;99.90;;;;;;4953298;29;20356;-76
2023/05/21 07:55:22;;;;;;;12.70;10.20;;;23.60;99.90;;;;;;4954568;29;20264;-77
2023/05/21 07:57:51;;;;;;;11.32;10.30;;;23.70;99.90;;;;;;4936594;29;20182;-76
2023/05/21 08:00:17;;;;;;;10.30;9.30;;;23.40;99.90;;;;;;4952842;29;20825;-76
2023/05/21 08:02:43;;;;;;;10.82;9.70;;;23.50;99.90;;;;;;4936138;29;20204;-76
2023/05/21 08:05:09;;;;;;;10.27;9.38;;;23.70;99.90;;;;;;4954060;28;20557;-76
2023/05/21 08:07:36;;;;;;;12.43;11.48;;;23.90;99.90;;;;;;4939558;29;20688;-75
2023/05/21 08:10:02;;;;;;;17.67;16.15;;;24.00;99.90;;;;;;4940103;29;20178;-76
2023/05/21 08:12:27;;;;;;;15.25;14.10;;;23.90;99.90;;;;;;4958190;28;20217;-76
2023/05/21 08:14:53;;;;;;;12.02;11.05;;;23.50;99.90;;;;;;4962945;29;20213;-77
2023/05/21 08:17:22;;;;;;;16.90;15.68;;;23.70;99.90;;;;;;4946269;29;20249;-77
2023/05/21 08:19:48;;;;;;;17.73;16.50;;;24.40;99.90;;;;;;4957746;29;20178;-76
2023/05/21 08:22:13;;;;;;;12.27;11.15;;;24.80;99.90;;;;;;4940857;29;20201;-76
2023/05/21 08:24:40;;;;;;;13.20;11.95;;;25.20;99.70;;;;;;4963458;29;20177;-77
2023/05/21 08:27:06;;;;;;;9.93;9.02;;;25.10;99.90;;;;;;4959620;29;20186;-77
2023/05/21 08:29:32;;;;;;;11.38;9.98;;;25.40;99.30;;;;;;4941988;29;20177;-80
2023/05/21 08:31:58;;;;;;;16.20;15.02;;;25.60;99.20;;;;;;4960343;28;20586;-77
2023/05/21 08:34:24;;;;;;;20.08;18.67;;;25.80;98.20;;;;;;4958294;29;20178;-77
2023/05/21 08:36:50;;;;;;;40.38;37.92;;;26.30;98.30;;;;;;4958454;29;20244;-74
2023/05/21 08:39:16;;;;;;;50.33;47.53;;;26.60;95.90;;;;;;4963767;29;20170;-77
2023/05/21 08:41:48;;;;;;;44.22;41.83;;;26.10;95.60;;;;;;4965291;29;20212;-77
2023/05/21 08:44:16;;;;;;;46.65;44.03;;;26.30;95.40;;;;;;4962410;29;20563;-77
2023/05/21 08:46:44;;;;;;;61.55;58.15;;;26.40;96.30;;;;;;4946668;29;20289;-76
2023/05/21 08:49:14;;;;;;;57.15;54.00;;;27.00;95.30;;;;;;4937575;29;20216;-79
2023/05/21 08:51:40;;;;;;;68.30;64.70;;;27.30;94.60;;;;;;4935406;29;20768;-77
2023/05/21 08:54:07;;;;;;;71.20;67.22;;;27.40;93.80;;;;;;4944202;29;20225;-76
2023/05/21 08:56:34;;;;;;;65.38;61.92;;;27.30;93.90;;;;;;4930272;29;20186;-77
2023/05/21 08:59:01;;;;;;;26.17;24.73;;;27.70;94.40;;;;;;4947061;29;20539;-81
2023/05/21 09:01:27;;;;;;;31.83;30.02;;;27.60;91.30;;;;;;4944844;29;20875;-79
2023/05/21 09:03:56;;;;;;;38.05;35.80;;;27.10;91.40;;;;;;4963839;29;20209;-80
2023/05/21 09:06:24;;;;;;;34.53;32.60;;;27.60;91.30;;;;;;4947641;29;20194;-79
2023/05/21 09:09:01;;;;;;;33.13;31.10;;;27.80;91.00;;;;;;4944520;29;20185;-79
2023/05/21 09:11:28;;;;;;;77.72;73.57;;;27.00;90.90;;;;;;4954686;28;20249;-76
2023/05/21 09:13:56;;;;;;;69.93;66.20;;;26.30;92.10;;;;;;4964089;29;20286;-76
2023/05/21 09:16:22;;;;;;;69.40;65.72;;;26.50;92.40;;;;;;4947804;29;20194;-78
2023/05/21 09:18:48;;;;;;;66.25;62.70;;;26.50;91.70;;;;;;4967297;29;20689;-78
2023/05/21 09:21:30;;;;;;;80.50;76.15;;;26.50;91.80;;;;;;4949687;29;20230;-78
2023/05/21 09:23:58;;;;;;;81.30;76.78;;;26.70;91.40;;;;;;4949262;29;20282;-79
2023/05/21 09:26:25;;;;;;;73.35;69.53;;;26.90;91.40;;;;;;4948495;29;20236;-80
2023/05/21 09:28:59;;;;;;;77.97;73.75;;;26.70;90.80;;;;;;4966693;29;20189;-79
2023/05/21 09:31:25;;;;;;;91.20;86.30;;;26.20;92.10;;;;;;4966768;28;20273;-81
2023/05/21 09:33:52;;;;;;;75.72;71.78;;;26.40;91.80;;;;;;4960790;29;20217;-80
2023/05/21 09:36:19;;;;;;;78.05;73.72;;;26.30;91.00;;;;;;4948557;29;20178;-78
2023/05/21 09:38:46;;;;;;;69.88;66.07;;;26.20;90.80;;;;;;4972872;29;20181;-77
2023/05/21 09:41:12;;;;;;;68.95;65.28;;;26.20;91.50;;;;;;4943376;29;20241;-78
2023/05/21 09:43:42;;;;;;;72.47;68.70;;;26.50;90.70;;;;;;4955258;29;20201;-78
2023/05/21 09:46:08;;;;;;;58.25;54.92;;;26.80;90.30;;;;;;4943130;29;20206;-80
2023/05/21 09:48:39;;;;;;;75.22;71.30;;;26.70;89.70;;;;;;4928160;29;20198;-79
2023/05/21 09:51:15;;;;;;;83.22;78.80;;;26.40;90.60;;;;;;4988976;23;20210;-78
2023/05/21 09:53:54;;;;;;;67.30;63.80;;;26.10;90.60;;;;;;4973270;28;20656;-76
2023/05/21 09:56:23;;;;;;;79.55;75.45;;;26.10;91.30;;;;;;4955990;28;20177;-75
2023/05/21 09:58:53;;;;;;;61.67;58.25;;;26.70;90.60;;;;;;4972331;28;20185;-75
2023/05/21 10:01:20;;;;;;;64.97;61.53;;;26.90;89.50;;;;;;4980651;28;20588;-75
2023/05/21 10:03:52;;;;;;;65.72;62.22;;;26.40;89.30;;;;;;4972622;28;20232;-74
2023/05/21 10:06:19;;;;;;;54.97;51.88;;;26.40;88.00;;;;;;4972989;28;20510;-75
2023/05/21 10:08:48;;;;;;;47.65;45.05;;;26.90;88.30;;;;;;4972510;28;20188;-74
2023/05/21 10:11:16;;;;;;;26.75;25.08;;;27.20;88.80;;;;;;4953986;28;20192;-74
2023/05/21 10:13:47;;;;;;;8.60;7.90;;;27.50;85.90;;;;;;4953078;29;20217;-78
2023/05/21 10:16:14;;;;;;;18.60;17.13;;;27.40;83.10;;;;;;4969869;28;20215;-77
2023/05/21 10:18:41;;;;;;;15.45;14.45;;;27.00;85.90;;;;;;4971764;28;20177;-76
2023/05/21 10:21:07;;;;;;;27.40;25.42;;;27.00;85.50;;;;;;4955940;28;20196;-75
2023/05/21 10:23:36;;;;;;;28.38;25.80;;;26.90;86.80;;;;;;4955000;29;20186;-76
2023/05/21 10:26:04;;;;;;;10.55;9.65;;;27.40;84.80;;;;;;4957779;29;20253;-78
2023/05/21 10:28:32;;;;;;;16.67;14.98;;;27.70;82.40;;;;;;4951145;28;20189;-76
2023/05/21 10:30:58;;;;;;;8.88;8.07;;;28.30;82.90;;;;;;4951830;28;20260;-77
2023/05/21 10:33:25;;;;;;;12.40;11.02;;;28.80;80.40;;;;;;4953267;28;20205;-76
2023/05/21 10:35:53;;;;;;;15.70;14.15;;;28.90;79.10;;;;;;4953189;28;20228;-78
2023/05/21 10:38:19;;;;;;;15.57;13.52;;;28.80;78.70;;;;;;4968249;28;20181;-76
2023/05/21 10:40:47;;;;;;;12.10;10.82;;;28.40;80.30;;;;;;4958904;28;20744;-77
2023/05/21 10:43:55;;;;;;;15.30;13.80;;;28.70;80.10;;;;;;4952678;29;20206;-76
2023/05/21 10:46:44;;;;;;;9.35;8.55;;;28.90;78.80;;;;;;4952849;29;20284;-75
2023/05/21 10:49:34;;;;;;;11.00;9.50;;;29.20;77.10;;;;;;4941008;29;20567;-76
2023/05/21 10:52:37;;;;;;;9.30;8.50;;;29.20;78.60;;;;;;4949178;28;20332;-75
2023/05/21 10:55:31;;;;;;;9.05;8.25;;;29.40;75.50;;;;;;4945986;29;20220;-75
2023/05/21 10:58:26;;;;;;;10.50;9.52;;;29.50;75.50;;;;;;4934300;29;20190;-75
2023/05/21 11:00:54;;;;;;;8.07;7.28;;;30.10;73.90;;;;;;4905552;29;20190;-76
2023/05/21 11:03:21;;;;;;;11.07;9.30;;;30.50;71.80;;;;;;4923698;29;20205;-76
2023/05/21 11:05:54;;;;;;;14.63;13.63;;;30.80;72.00;;;;;;4953288;29;20192;-76
2023/05/21 11:08:34;;;;;;;18.90;17.67;;;31.70;68.20;;;;;;4952546;28;20313;-76
2023/05/21 11:11:01;;;;;;;27.58;25.77;;;31.70;68.50;;;;;;4952937;28;20225;-77
2023/05/21 11:13:31;;;;;;;46.92;44.25;;;31.90;67.50;;;;;;4946781;28;20210;-79
2023/05/21 11:16:05;;;;;;;50.70;47.92;;;32.40;66.20;;;;;;4943259;29;20178;-77
2023/05/21 11:18:34;;;;;;;60.85;57.55;;;32.40;65.00;;;;;;4935405;29;20677;-76
2023/05/21 11:21:13;;;;;;;72.07;67.90;;;31.80;64.20;;;;;;4953144;29;20236;-75
2023/05/21 11:23:55;;;;;;;69.88;66.05;;;32.00;64.10;;;;;;4934067;29;20209;-75
2023/05/21 11:26:23;;;;;;;65.15;61.85;;;32.50;61.60;;;;;;4934248;29;20225;-75
2023/05/21 11:29:04;;;;;;;65.82;62.28;;;32.20;62.40;;;;;;4933472;29;21009;-75
2023/05/21 11:31:37;;;;;;;50.63;47.75;;;31.40;62.70;;;;;;4945276;28;20586;-76
2023/05/21 11:34:12;;;;;;;17.52;16.30;;;30.00;63.90;;;;;;5459283;23;20289;-76
2023/05/21 11:36:46;;;;;;;11.55;10.65;;;29.40;67.00;;;;;;4953511;28;20192;-76
2023/05/21 11:39:20;;;;;;;11.77;10.77;;;29.20;68.00;;;;;;4971399;28;20185;-76
2023/05/21 11:41:57;;;;;;;11.05;10.05;;;29.20;67.80;;;;;;4958657;28;20558;-77
2023/05/21 11:44:46;;;;;;;12.23;11.38;;;29.50;68.30;;;;;;4975729;28;20195;-76
2023/05/21 11:47:13;;;;;;;15.75;14.75;;;30.40;66.70;;;;;;4975555;28;20193;-75
2023/05/21 11:49:40;;;;;;;23.40;21.83;;;30.90;65.40;;;;;;5016647;23;20235;-80
2023/05/21 11:52:07;;;;;;;31.35;29.45;;;31.30;65.10;;;;;;5008780;28;20880;-82
2023/05/21 11:54:45;;;;;;;26.75;25.02;;;31.20;63.50;;;;;;4988992;28;20176;-81
2023/05/21 11:57:15;;;;;;;34.75;32.22;;;30.90;65.20;;;;;;4998946;28;20185;-81
2023/05/21 11:59:42;;;;;;;34.30;32.42;;;30.90;63.80;;;;;;4981130;28;20201;-80
2023/05/21 12:02:07;;;;;;;26.73;25.17;;;30.70;63.00;;;;;;4977683;28;20248;-81
2023/05/21 12:04:36;;;;;;;47.83;45.15;;;30.70;64.40;;;;;;4976649;28;20173;-81
2023/05/21 12:07:06;;;;;;;37.50;35.47;;;30.90;61.30;;;;;;4960677;28;20599;-80
2023/05/21 12:09:45;;;;;;;73.90;70.00;;;30.90;62.50;;;;;;4959873;28;20208;-81
2023/05/21 12:12:14;;;;;;;80.22;76.18;;;31.40;59.60;;;;;;4978205;28;20277;-80
2023/05/21 12:14:44;;;;;;;84.78;80.57;;;31.70;59.10;;;;;;4977708;28;20183;-81
2023/05/21 12:17:12;;;;;;;95.40;90.15;;;31.70;59.30;;;;;;4977721;28;20212;-82
2023/05/21 12:19:38;;;;;;;93.90;89.30;;;31.80;59.70;;;;;;4960205;28;20221;-81
2023/05/21 12:22:06;;;;;;;80.03;75.93;;;31.50;58.80;;;;;;4961677;28;20549;-80
2023/05/21 12:24:33;;;;;;;83.38;79.10;;;30.80;59.40;;;;;;4961880;28;20208;-82
2023/05/21 12:27:00;;;;;;;93.35;88.55;;;30.70;60.20;;;;;;4967003;28;20173;-80
2023/05/21 12:29:30;;;;;;;67.22;63.78;;;31.10;59.40;;;;;;4976001;28;20235;-80
2023/05/21 12:32:00;;;;;;;75.70;71.88;;;30.80;61.50;;;;;;4974432;28;20185;-81
2023/05/21 12:34:43;;;;;;;72.38;68.70;;;31.00;59.80;;;;;;4978182;28;20693;-82
2023/05/21 12:37:20;;;;;;;69.20;65.47;;;31.20;60.50;;;;;;4960018;28;20191;-81
2023/05/21 12:39:51;;;;;;;82.13;78.07;;;31.20;60.10;;;;;;4960279;28;20207;-81
2023/05/21 12:42:34;;;;;;;62.00;58.67;;;31.40;59.20;;;;;;4963531;28;20216;-81
2023/05/21 12:45:08;;;;;;;85.90;81.55;;;31.60;60.20;;;;;;4980840;28;20185;-82
2023/05/21 12:47:34;;;;;;;71.88;68.28;;;31.50;60.40;;;;;;4978387;28;20192;-81
2023/05/21 12:50:08;;;;;;;80.78;76.50;;;31.10;60.50;;;;;;4962152;28;20569;-81
2023/05/21 12:52:34;;;;;;;63.17;60.00;;;30.10;60.30;;;;;;4959839;28;20585;-81
2023/05/21 12:54:59;;;;;;;53.08;50.30;;;29.90;61.30;;;;;;4944207;28;20193;-80
2023/05/21 12:57:37;;;;;;;52.13;49.35;;;30.00;60.80;;;;;;4949487;28;20641;-83
2023/05/21 13:00:09;;;;;;;54.70;51.47;;;30.10;60.10;;;;;;4976817;28;20316;-82
2023/05/21 13:02:41;;;;;;;65.28;61.92;;;30.20;59.30;;;;;;4960509;28;20726;-81
2023/05/21 13:05:16;;;;;;;67.65;64.10;;;30.60;59.20;;;;;;4959823;28;20192;-82
2023/05/21 13:07:42;;;;;;;68.38;64.78;;;30.70;59.70;;;;;;4977562;28;20185;-80
2023/05/21 13:10:09;;;;;;;75.60;71.82;;;30.60;59.00;;;;;;5458530;23;20708;-81
2023/05/21 13:12:35;;;;;;;80.03;75.85;;;30.70;59.00;;;;;;4978688;28;20215;-81
2023/05/21 13:15:02;;;;;;;73.30;69.55;;;30.90;60.30;;;;;;4999534;28;20556;-81
2023/05/21 13:17:28;;;;;;;71.95;68.18;;;31.30;61.40;;;;;;4975024;28;20192;-80
2023/05/21 13:20:16;;;;;;;71.15;67.47;;;31.40;58.30;;;;;;4992467;28;20209;-80
2023/05/21 13:22:45;;;;;;;93.53;88.85;;;31.00;57.40;;;;;;5007559;28;20184;-80
2023/05/21 13:25:14;;;;;;;94.72;89.95;;;30.40;59.00;;;;;;4984959;23;20323;-75
2023/05/21 13:27:41;;;;;;;90.07;85.53;;;30.10;59.00;;;;;;4973449;28;20188;-75
2023/05/21 13:30:07;;;;;;;78.15;73.75;;;29.90;59.40;;;;;;4973816;28;20634;-75
2023/05/21 13:32:33;;;;;;;40.83;38.60;;;29.60;59.90;;;;;;4973175;28;20677;-77
2023/05/21 13:34:59;;;;;;;17.52;16.42;;;29.00;61.60;;;;;;4937259;28;20214;-76
2023/05/21 13:37:25;;;;;;;11.13;10.32;;;28.60;62.20;;;;;;5476323;23;20784;-76
2023/05/21 13:39:50;;;;;;;9.88;9.18;;;28.40;62.70;;;;;;4974981;28;20176;-76
2023/05/21 13:42:16;;;;;;;10.57;9.43;;;28.30;63.90;;;;;;4992865;28;20183;-76
2023/05/21 13:44:42;;;;;;;10.27;9.38;;;28.20;63.90;;;;;;4961549;28;20669;-76
2023/05/21 13:47:09;;;;;;;11.13;10.18;;;28.30;64.00;;;;;;4973177;28;20192;-76
2023/05/21 13:49:35;;;;;;;12.23;11.32;;;28.20;63.70;;;;;;4954228;28;20224;-76
2023/05/21 13:52:01;;;;;;;9.10;8.30;;;28.20;64.00;;;;;;4958153;28;20205;-76
2023/05/21 13:54:27;;;;;;;11.10;10.23;;;28.50;64.00;;;;;;4964300;28;20712;-76
2023/05/21 13:56:53;;;;;;;9.07;8.40;;;28.80;64.20;;;;;;4956170;28;20281;-76
2023/05/21 13:59:19;;;;;;;9.63;8.93;;;28.90;62.80;;;;;;4956127;28;20180;-76
2023/05/21 14:01:46;;;;;;;8.30;7.47;;;28.70;63.60;;;;;;4961099;28;20650;-76
2023/05/21 14:04:12;;;;;;;8.98;8.15;;;28.70;63.90;;;;;;4953114;28;20213;-76
2023/05/21 14:06:38;;;;;;;8.75;8.05;;;28.90;64.80;;;;;;4961959;28;20665;-76
2023/05/21 14:09:04;;;;;;;7.60;7.00;;;29.20;65.20;;;;;;4954113;28;20207;-76
2023/05/21 14:11:33;;;;;;;9.65;8.90;;;29.50;65.20;;;;;;4963023;28;20190;-76
2023/05/21 14:14:00;;;;;;;12.05;10.98;;;29.40;63.00;;;;;;4946221;28;20220;-76
2023/05/21 14:16:26;;;;;;;13.20;12.25;;;29.50;62.50;;;;;;4953740;29;20185;-77
2023/05/21 14:18:52;;;;;;;13.63;12.40;;;29.70;62.70;;;;;;4953278;29;20181;-76
2023/05/21 14:21:19;;;;;;;24.45;22.83;;;30.00;65.00;;;;;;4940860;29;20206;-76
2023/05/21 14:23:45;;;;;;;34.45;32.25;;;30.30;62.10;;;;;;4954310;28;20212;-77
2023/05/21 14:26:10;;;;;;;30.45;28.38;;;30.70;62.00;;;;;;4953660;29;20185;-77
2023/05/21 14:28:36;;;;;;;53.80;50.58;;;31.00;62.30;;;;;;4952067;29;20185;-75
2023/05/21 14:31:02;;;;;;;42.58;39.55;;;31.40;61.70;;;;;;4954390;29;20232;-77
2023/05/21 14:33:30;;;;;;;59.55;55.85;;;31.40;64.50;;;;;;4954434;28;20301;-76
2023/05/21 14:35:56;;;;;;;55.00;51.85;;;31.40;63.10;;;;;;4973422;28;20185;-75
2023/05/21 14:38:22;;;;;;;58.60;55.45;;;31.60;64.50;;;;;;4955489;28;20847;-76
2023/05/21 14:40:47;;;;;;;74.97;71.05;;;31.90;64.70;;;;;;4952510;29;20540;-76
2023/05/21 14:43:13;;;;;;;75.43;71.63;;;32.20;60.60;;;;;;4952768;28;20186;-76
2023/05/21 14:45:39;;;;;;;88.95;84.43;;;32.20;60.40;;;;;;4948950;29;20257;-77
2023/05/21 14:48:07;;;;;;;77.88;73.72;;;32.40;60.40;;;;;;4953468;28;20595;-76
2023/05/21 14:50:34;;;;;;;71.53;67.45;;;32.90;62.40;;;;;;4952102;29;20624;-76
2023/05/21 14:53:08;;;;;;;86.75;82.20;;;32.70;61.60;;;;;;4953312;29;20205;-76
2023/05/21 14:55:35;;;;;;;89.03;84.10;;;32.40;63.30;;;;;;4934224;29;20190;-76
2023/05/21 14:58:02;;;;;;;91.13;86.38;;;32.20;62.80;;;;;;4932967;29;20189;-76
2023/05/21 15:00:28;;;;;;;86.28;81.78;;;31.80;65.10;;;;;;4934858;29;20186;-76
2023/05/21 15:02:54;;;;;;;83.97;79.60;;;31.90;65.20;;;;;;4953558;28;20222;-76
2023/05/21 15:05:20;;;;;;;81.78;77.47;;;32.10;63.90;;;;;;4953761;29;20244;-76
2023/05/21 15:07:45;;;;;;;88.18;83.43;;;32.40;61.90;;;;;;4958500;28;20185;-76
2023/05/21 15:10:11;;;;;;;98.18;92.90;;;32.40;61.70;;;;;;4972964;28;20239;-76
2023/05/21 15:12:38;;;;;;;80.00;75.70;;;31.80;64.20;;;;;;4956068;28;20198;-76
2023/05/21 15:15:05;;;;;;;89.85;84.95;;;31.30;65.30;;;;;;4969077;28;20228;-76
2023/05/21 15:17:32;;;;;;;54.75;51.65;;;30.90;65.20;;;;;;4955020;28;20199;-76
2023/05/21 15:20:00;;;;;;;50.05;46.72;;;30.50;64.80;;;;;;4972557;28;20264;-76
2023/05/21 15:22:26;;;;;;;44.33;41.88;;;30.50;65.70;;;;;;4956427;28;20564;-76
2023/05/21 15:24:52;;;;;;;48.30;45.50;;;30.70;66.90;;;;;;4952992;28;20211;-76
2023/05/21 15:27:18;;;;;;;40.88;38.42;;;30.80;66.10;;;;;;4952646;29;20177;-76
2023/05/21 15:29:44;;;;;;;41.58;39.13;;;30.90;66.40;;;;;;4958477;28;20657;-77
2023/05/21 15:32:10;;;;;;;33.50;31.60;;;30.80;66.30;;;;;;4957542;28;20563;-76